Data for 12/22/2007

Time Sea-Level Adjusted Pressure Absolute Pressure Temperature Relative Humidity Dew Point   
(mb) (inHg) (mb) (inHg) (C) (F) (%) (C) (F)
00:05 1023 30.21 852 25.16 -8.8 16.2 56 -16.1 3.1
00:10 1023 30.21 853 25.19 -9.3 15.3 58 -16.2 2.8
00:15 1023 30.21 853 25.19 -9.7 14.5 58 -16.5 2.3
00:20 1023 30.21 853 25.19 -9.7 14.5 59 -16.3 2.6
00:25 1023 30.21 853 25.19 -9.3 15.2 57 -16.5 2.4
00:30 1023 30.21 853 25.19 -8.9 16.1 56 -16.2 2.9
00:35 1024 30.24 853 25.19 -8.6 16.5 54 -16.2 2.8
00:40 1024 30.24 853 25.19 -8.3 17.1 54 -16.1 3.1
00:45 1024 30.24 853 25.19 -8.1 17.4 54 -15.8 3.6
00:50 1023 30.21 853 25.19 -8.2 17.3 54 -15.9 3.5
00:55 1023 30.21 853 25.19 -8.2 17.2 54 -15.9 3.3
01:00 1023 30.21 853 25.19 -8.1 17.4 54 -15.9 3.4
01:05 1023 30.21 853 25.19 -8.4 17 55 -15.9 3.4
01:10 1024 30.24 853 25.19 -9 15.8 56 -16.3 2.6
01:15 1024 30.24 853 25.19 -10.1 13.8 59 -16.7 1.9
01:20 1024 30.24 853 25.19 -11 12.3 61 -17 1.3
01:25 1024 30.24 853 25.19 -11.2 11.9 62 -17.1 1.2
01:30 1024 30.24 853 25.19 -11.2 11.8 65 -16.6 2.1
01:35 1024 30.24 853 25.19 -11.3 11.6 64 -16.9 1.5
01:40 1024 30.24 853 25.19 -11.2 11.9 66 -16.4 2.5
01:45 1024 30.24 853 25.19 -12.1 10.3 68 -16.9 1.6
01:50 1024 30.24 853 25.19 -11.4 11.6 65 -16.8 1.8
01:55 1024 30.24 853 25.19 -10.9 12.3 63 -16.7 1.9
02:00 1024 30.24 853 25.19 -11.1 11.9 65 -16.5 2.2
02:05 1024 30.24 853 25.19 -11.7 11 67 -16.6 2.1
02:10 1024 30.24 853 25.19 -11.8 10.8 68 -16.5 2.2
02:15 1024 30.24 853 25.19 -12 10.4 70 -16.4 2.4
02:20 1024 30.24 853 25.19 -12.3 9.9 72 -16.4 2.4
02:25 1024 30.24 853 25.19 -12.2 10.1 71 -16.5 2.4
02:30 1024 30.24 853 25.19 -12.1 10.2 73 -16 3.2
02:35 1024 30.24 853 25.19 -12.1 10.2 71 -16.3 2.6
02:40 1024 30.24 853 25.19 -11.9 10.5 74 -15.7 3.7
02:45 1024 30.24 853 25.19 -12 10.4 71 -16.2 2.8
02:50 1024 30.24 853 25.19 -11.8 10.8 70 -16.2 2.8
02:55 1024 30.24 853 25.19 -11.9 10.6 70 -16.4 2.5
03:00 1024 30.24 853 25.19 -12.2 10.1 70 -16.5 2.2
03:05 1024 30.24 853 25.19 -12.1 10.2 71 -16.4 2.4
03:10 1024 30.24 853 25.19 -12.2 10.1 71 -16.5 2.3
03:15 1024 30.24 853 25.19 -12.2 10.1 70 -16.5 2.3
03:20 1024 30.24 853 25.19 -12.2 10 73 -16 3.1
03:25 1024 30.24 853 25.19 -12.2 10 71 -16.4 2.4
03:30 1024 30.24 853 25.19 -12.2 10 73 -16 3.1
03:35 1024 30.24 853 25.19 -12.4 9.7 71 -16.7 1.9
03:40 1024 30.24 853 25.19 -12.6 9.4 69 -17.1 1.3
03:45 1024 30.24 853 25.19 -12.4 9.6 69 -17 1.4
03:50 1024 30.24 853 25.19 -12.6 9.4 69 -17.1 1.2
03:55 1024 30.24 853 25.19 -12.7 9.1 73 -16.5 2.2
04:00 1024 30.24 853 25.19 -12.5 9.5 71 -16.8 1.7
04:05 1024 30.24 853 25.19 -12.4 9.7 68 -17.1 1.3
04:10 1024 30.24 853 25.19 -12.7 9.1 70 -17.1 1.2
04:15 1024 30.24 853 25.19 -12.8 9 69 -17.3 0.8
04:20 1024 30.24 853 25.19 -13 8.6 70 -17.5 0.6
04:25 1024 30.24 853 25.19 -13.4 8 71 -17.5 0.5
04:30 1024 30.24 853 25.19 -13.7 7.4 72 -17.7 0.1
04:35 1024 30.24 853 25.19 -13.6 7.5 71 -17.8 0
04:40 1024 30.24 853 25.19 -13.7 7.4 76 -17.1 1.2
04:45 1024 30.24 853 25.19 -12.9 8.8 75 -16.4 2.4
04:50 1024 30.24 853 25.19 -12.7 9.1 71 -16.9 1.6
04:55 1024 30.24 853 25.19 -12.9 8.7 68 -17.6 0.3
05:00 1024 30.24 853 25.19 -12.8 9 71 -16.9 1.5
05:05 1024 30.24 853 25.19 -12.7 9.2 68 -17.4 0.6
05:10 1024 30.24 853 25.19 -13.1 8.4 72 -17.1 1.3
05:15 1024 30.24 853 25.19 -13.6 7.6 76 -16.9 1.6
05:20 1024 30.24 853 25.19 -13.4 7.9 75 -17 1.4
05:25 1024 30.24 853 25.19 -13.4 8 75 -16.8 1.7
05:30 1024 30.24 853 25.19 -13.1 8.3 73 -17 1.3
05:35 1024 30.24 853 25.19 -12.8 9 68 -17.5 0.5
05:40 1024 30.24 853 25.19 -12.8 8.9 69 -17.4 0.6
05:45 1024 30.24 853 25.19 -12.9 8.8 69 -17.4 0.6
05:50 1024 30.24 853 25.19 -13 8.6 72 -17 1.3
05:55 1024 30.24 853 25.19 -13.1 8.5 75 -16.6 2.2
06:00 1024 30.24 853 25.19 -13.1 8.5 70 -17.4 0.7
06:05 1024 30.24 853 25.19 -13.1 8.5 72 -17.1 1.2
06:10 1024 30.24 853 25.19 -13 8.7 70 -17.3 0.8
06:15 1024 30.24 853 25.19 -12.8 9.1 70 -17.2 1
06:20 1024 30.24 853 25.19 -12.6 9.3 71 -16.9 1.7
06:25 1024 30.24 853 25.19 -12.9 8.9 73 -16.8 1.8
06:30 1024 30.24 853 25.19 -12.9 8.8 68 -17.6 0.3
06:35 1024 30.24 853 25.19 -13.5 7.8 70 -17.9 -0.2
06:40 1024 30.24 853 25.19 -13.8 7.3 72 -17.8 -0
06:45 1024 30.24 853 25.19 -13.7 7.3 71 -17.8 -0.1
06:50 1024 30.24 853 25.19 -13.6 7.5 71 -17.9 -0.2
06:55 1024 30.24 853 25.19 -13.4 7.9 68 -18.1 -0.6
07:00 1024 30.24 853 25.19 -12.9 8.7 68 -17.7 0.1
07:05 1024 30.24 853 25.19 -12.8 8.9 69 -17.4 0.8
07:10 1024 30.24 853 25.19 -12.8 8.9 67 -17.7 0.1
07:15 1024 30.24 853 25.19 -12.7 9.1 68 -17.5 0.4
07:20 1024 30.24 853 25.19 -13 8.6 69 -17.5 0.6
07:25 1024 30.24 853 25.19 -13 8.5 71 -17.3 0.8
07:30 1024 30.24 853 25.19 -13 8.7 72 -16.9 1.5
07:35 1024 30.24 853 25.19 -12.9 8.8 71 -17 1.3
07:40 1024 30.24 853 25.19 -12.9 8.7 71 -17.2 1
07:45 1024 30.24 853 25.19 -13.1 8.3 70 -17.6 0.3
07:50 1024 30.24 853 25.19 -13.2 8.3 69 -17.6 0.3
07:55 1024 30.24 853 25.19 -13.3 8 71 -17.5 0.5
08:00 1024 30.24 853 25.19 -13.4 7.9 71 -17.6 0.3
08:05 1024 30.24 853 25.19 -13.4 7.8 70 -17.7 0.1
08:10 1024 30.24 853 25.19 -13.5 7.7 71 -17.8 0
08:15 1024 30.24 853 25.19 -13.5 7.8 72 -17.5 0.4
08:20 1024 30.24 853 25.19 -13.4 7.9 71 -17.7 0.2
08:25 1024 30.24 853 25.19 -13.4 7.8 71 -17.7 0.1
08:30 1024 30.24 853 25.19 -13.4 8 70 -17.7 0.1
08:35 1024 30.24 853 25.19 -13.3 8 71 -17.5 0.4
08:40 1024 30.24 853 25.19 -13.2 8.2 70 -17.6 0.2
08:45 1024 30.24 853 25.19 -13.1 8.4 70 -17.4 0.6
08:50 1024 30.24 853 25.19 -12.9 8.7 69 -17.5 0.4
08:55 1024 30.24 853 25.19 -12.6 9.3 69 -17.3 0.9
09:00 1024 30.24 853 25.19 -12.6 9.3 69 -17.2 1
09:05 1024 30.24 853 25.19 -12.3 9.9 67 -17.2 1.1
09:10 1024 30.24 853 25.19 -11.9 10.5 66 -17 1.3
09:15 1024 30.24 853 25.19 -11.4 11.5 63 -17.1 1.2
09:20 1024 30.24 853 25.19 -10.9 12.4 62 -16.8 1.7
09:25 1024 30.24 853 25.19 -10.5 13 60 -16.8 1.7
09:30 1024 30.24 853 25.19 -10.6 12.9 61 -16.7 2
09:35 1024 30.24 854 25.22 -10.6 12.8 62 -16.6 2.2
09:40 1024 30.24 854 25.22 -10.4 13.2 60 -16.8 1.8
09:45 1025 30.27 854 25.22 -10 14 59 -16.5 2.3
09:50 1025 30.27 854 25.22 -9.6 14.6 58 -16.4 2.4
09:55 1025 30.27 854 25.22 -9.5 15 58 -16.3 2.6
10:00 1025 30.27 854 25.22 -9 15.9 54 -16.6 2.1
10:05 1025 30.27 854 25.22 -8.5 16.7 54 -16.3 2.7
10:10 1025 30.27 854 25.22 -8.8 16.3 53 -16.6 2.1
10:15 1025 30.27 854 25.22 -9.1 15.6 56 -16.3 2.6
10:20 1025 30.27 854 25.22 -8.8 16.1 54 -16.6 2.1
10:25 1025 30.27 854 25.22 -8.9 16.1 56 -16.2 2.9
10:30 1025 30.27 854 25.22 -9.2 15.5 57 -16.2 2.8
10:35 1025 30.27 854 25.22 -9.2 15.5 57 -16.3 2.7
10:40 1025 30.27 854 25.22 -9 15.7 55 -16.4 2.4
10:45 1025 30.27 854 25.22 -9.1 15.5 58 -16 3.2
10:50 1025 30.27 854 25.22 -9.3 15.3 59 -15.9 3.4
10:55 1025 30.27 854 25.22 -9.1 15.7 56 -16.2 2.8
11:00 1024 30.24 854 25.22 -9.1 15.7 59 -15.6 3.8
11:05 1024 30.24 853 25.19 -8.8 16.1 57 -15.8 3.5
11:10 1024 30.24 853 25.19 -8.6 16.5 56 -16 3.2
11:15 1024 30.24 853 25.19 -8.6 16.6 56 -15.9 3.3
11:20 1024 30.24 853 25.19 -8.5 16.8 56 -15.7 3.8
11:25 1024 30.24 853 25.19 -8.4 16.9 56 -15.7 3.7
11:30 1024 30.24 853 25.19 -8.5 16.7 58 -15.3 4.5
11:35 1024 30.24 853 25.19 -8.6 16.5 60 -15 5.1
11:40 1024 30.24 853 25.19 -8.8 16.1 61 -15 5
11:45 1024 30.24 853 25.19 -8.9 16 62 -15 5.1
11:50 1023 30.21 853 25.19 -8.7 16.3 60 -15.1 4.8
11:55 1023 30.21 853 25.19 -8.5 16.8 61 -14.6 5.7
12:00 1023 30.21 852 25.16 -8.1 17.5 59 -14.6 5.6
12:05 1023 30.21 852 25.16 -8.1 17.5 59 -14.7 5.5
12:10 1023 30.21 852 25.16 -7.9 17.7 57 -15.1 4.8
12:15 1023 30.21 852 25.16 -7.8 18 55 -15.4 4.3
12:20 1023 30.21 852 25.16 -7.7 18.2 54 -15.4 4.2
12:25 1023 30.21 852 25.16 -7.6 18.3 55 -15.1 4.8
12:30 1023 30.21 852 25.16 -7.7 18.1 57 -14.9 5.2
12:35 1022 30.18 852 25.16 -7.5 18.6 54 -15.2 4.6
12:40 1022 30.18 852 25.16 -7.3 18.8 55 -14.9 5.1
12:45 1022 30.18 852 25.16 -7.4 18.8 55 -15 5.1
12:50 1022 30.18 851 25.13 -7.3 18.9 53 -15.4 4.3
12:55 1022 30.18 851 25.13 -7.3 18.9 53 -15.3 4.4
13:00 1022 30.18 851 25.13 -7 19.3 52 -15.2 4.6
13:05 1022 30.18 851 25.13 -7.1 19.2 54 -15 5
13:10 1022 30.18 851 25.13 -7.2 19.1 53 -15.3 4.5
13:15 1022 30.18 851 25.13 -6.8 19.8 55 -14.3 6.3
13:20 1022 30.18 851 25.13 -6.4 20.5 52 -14.7 5.5
13:25 1022 30.18 851 25.13 -6.2 20.8 53 -14.4 6.1
13:30 1022 30.18 851 25.13 -5.9 21.3 51 -14.6 5.8
13:35 1022 30.18 851 25.13 -5.9 21.4 51 -14.4 6.1
13:40 1022 30.18 851 25.13 -5.7 21.8 50 -14.5 5.9
13:45 1022 30.18 851 25.13 -5.8 21.6 54 -13.8 7.2
13:50 1022 30.18 851 25.13 -6.1 21 53 -14.2 6.4
13:55 1022 30.18 851 25.13 -5.8 21.5 53 -14.1 6.7
14:00 1022 30.18 851 25.13 -6.5 20.4 54 -14.2 6.4
14:05 1022 30.18 851 25.13 -6.9 19.6 54 -14.6 5.7
14:10 1022 30.18 851 25.13 -7 19.4 53 -15 5
14:15 1022 30.18 851 25.13 -6.9 19.6 54 -14.8 5.4
14:20 1022 30.18 851 25.13 -6.9 19.5 56 -14.3 6.2
14:25 1021 30.15 851 25.13 -6.5 20.3 53 -14.6 5.8
14:30 1021 30.15 851 25.13 -6.2 20.8 53 -14.3 6.3
14:35 1021 30.15 851 25.13 -6.4 20.5 52 -14.7 5.5
14:40 1021 30.15 851 25.13 -6.5 20.4 52 -14.8 5.3
14:45 1021 30.15 850 25.1 -6.6 20.1 51 -15.1 4.9
14:50 1021 30.15 850 25.1 -6.5 20.3 51 -15.2 4.7
14:55 1021 30.15 850 25.1 -6.4 20.4 48 -15.8 3.6
15:00 1021 30.15 850 25.1 -6.6 20.2 50 -15.3 4.4
15:05 1021 30.15 850 25.1 -6.3 20.6 51 -15 5.1
15:10 1021 30.15 850 25.1 -6.1 20.9 50 -15.1 4.9
15:15 1021 30.15 850 25.1 -6.2 20.9 48 -15.4 4.2
15:20 1021 30.15 850 25.1 -6.3 20.6 49 -15.4 4.3
15:25 1021 30.15 850 25.1 -6.4 20.5 48 -15.6 4
15:30 1021 30.15 850 25.1 -6.5 20.3 51 -15.1 4.8
15:35 1021 30.15 850 25.1 -6.5 20.2 52 -14.8 5.3
15:40 1021 30.15 850 25.1 -6.5 20.3 53 -14.7 5.6
15:45 1021 30.15 850 25.1 -6.4 20.4 53 -14.5 5.9
15:50 1021 30.15 850 25.1 -6.5 20.4 54 -14.3 6.2
15:55 1021 30.15 850 25.1 -6.5 20.2 55 -14.3 6.3
16:00 1021 30.15 850 25.1 -6.6 20.2 57 -13.8 7.2
16:05 1021 30.15 850 25.1 -6.5 20.2 54 -14.5 5.9
16:10 1021 30.15 850 25.1 -6.7 20 54 -14.6 5.7
16:15 1021 30.15 850 25.1 -6.7 19.9 56 -14.2 6.5
16:20 1021 30.15 850 25.1 -6.7 20 56 -14 6.8
16:25 1021 30.15 850 25.1 -6.7 20 57 -13.8 7.1
16:30 1020 30.12 850 25.1 -6.6 20.2 57 -13.8 7.1
16:35 1020 30.12 850 25.1 -6.6 20 56 -13.9 6.9
16:40 1020 30.12 850 25.1 -6.7 20 57 -13.9 7
16:45 1020 30.12 850 25.1 -6.7 20 57 -13.9 7
16:50 1020 30.12 849 25.07 -6.6 20 59 -13.4 7.9
16:55 1020 30.12 849 25.07 -6.7 20 56 -14 6.8
17:00 1020 30.12 849 25.07 -6.7 20 58 -13.7 7.3
17:05 1020 30.12 849 25.07 -6.7 19.9 60 -13.4 7.9
17:10 1020 30.12 849 25.07 -6.8 19.8 59 -13.4 7.8
17:15 1020 30.12 849 25.07 -6.7 19.9 59 -13.4 7.8
17:20 1020 30.12 849 25.07 -6.6 20.1 59 -13.3 8
17:25 1020 30.12 849 25.07 -6.6 20.2 61 -12.9 8.8
17:30 1020 30.12 849 25.07 -6.6 20.1 62 -12.6 9.3
17:35 1020 30.12 849 25.07 -6.7 20 60 -13.3 8.1
17:40 1020 30.12 849 25.07 -6.7 19.9 55 -14.3 6.2
17:45 1020 30.12 849 25.07 -6.6 20.1 61 -13 8.6
17:50 1019 30.09 849 25.07 -6.7 20 61 -12.9 8.7
17:55 1019 30.09 849 25.07 -6.7 20 63 -12.6 9.3
18:00 1019 30.09 849 25.07 -6.5 20.3 62 -12.6 9.4
18:05 1019 30.09 849 25.07 -6.3 20.7 61 -12.6 9.3
18:10 1019 30.09 848 25.04 -6.1 21 60 -12.6 9.3
18:15 1019 30.09 848 25.04 -6 21.2 61 -12.3 9.9
18:20 1019 30.09 848 25.04 -6.2 20.9 64 -12 10.4
18:25 1019 30.09 848 25.04 -6.4 20.6 64 -12.1 10.2
18:30 1019 30.09 848 25.04 -6.3 20.6 63 -12.2 10
18:35 1019 30.09 848 25.04 -6.1 21 57 -13.2 8.2
18:40 1019 30.09 848 25.04 -5.8 21.6 60 -12.3 9.8
18:45 1019 30.09 848 25.04 -5.9 21.4 64 -11.6 11.2
18:50 1019 30.09 848 25.04 -6 21.2 66 -11.3 11.6
18:55 1019 30.09 848 25.04 -5.9 21.4 59 -12.6 9.3
19:00 1019 30.09 848 25.04 -5.5 22.1 62 -11.8 10.8
19:05 1019 30.09 848 25.04 -5.4 22.3 62 -11.6 11.2
19:10 1019 30.09 848 25.04 -5.3 22.5 64 -11.1 12
19:15 1019 30.09 848 25.04 -5.2 22.6 66 -10.5 13
19:20 1019 30.09 848 25.04 -5.6 22 68 -10.5 13.1
19:25 1019 30.09 848 25.04 -5.8 21.5 69 -10.7 12.7
19:30 1019 30.09 848 25.04 -5.7 21.7 67 -10.9 12.3
19:35 1019 30.09 848 25.04 -5.8 21.6 68 -10.7 12.8
19:40 1019 30.09 848 25.04 -5.7 21.7 68 -10.7 12.8
19:45 1019 30.09 848 25.04 -5.7 21.7 68 -10.8 12.6
19:50 1019 30.09 848 25.04 -5.7 21.7 70 -10.4 13.4
19:55 1018 30.06 848 25.04 -5.8 21.6 72 -10 13.9
20:00 1018 30.06 847 25.01 -6 21.2 71 -10.4 13.3
20:05 1018 30.06 847 25.01 -6.1 21 66 -11.4 11.4
20:10 1018 30.06 848 25.04 -5.8 21.6 65 -11.3 11.7
20:15 1018 30.06 847 25.01 -5.5 22.1 68 -10.4 13.2
20:20 1018 30.06 847 25.01 -5.6 22 70 -10.1 13.7
20:25 1018 30.06 847 25.01 -5.5 22 68 -10.6 12.9
20:30 1018 30.06 847 25.01 -5.2 22.6 67 -10.5 13
20:35 1018 30.06 847 25.01 -5 23 67 -10.2 13.6
20:40 1018 30.06 847 25.01 -5 22.9 70 -9.7 14.6
20:45 1018 30.06 847 25.01 -5.2 22.6 72 -9.4 15
20:50 1018 30.06 848 25.04 -5.5 22 70 -10.1 13.8
20:55 1018 30.06 848 25.04 -5.4 22.3 70 -10.1 13.8
21:00 1018 30.06 847 25.01 -5.4 22.2 73 -9.5 14.9
21:05 1018 30.06 847 25.01 -5.3 22.4 72 -9.7 14.5
21:10 1018 30.06 847 25.01 -5.3 22.4 74 -9.3 15.3
21:15 1018 30.06 848 25.04 -5.5 22.1 74 -9.4 15.1
21:20 1018 30.06 848 25.04 -5.5 22.2 74 -9.4 15.2
21:25 1018 30.06 848 25.04 -5.5 22.1 75 -9.3 15.3
21:30 1018 30.06 848 25.04 -5.4 22.3 74 -9.4 15.1
21:35 1018 30.06 848 25.04 -5.4 22.3 72 -9.6 14.7
21:40 1018 30.06 848 25.04 -5.3 22.4 75 -9.2 15.5
21:45 1018 30.06 847 25.01 -5.2 22.7 72 -9.4 15
21:50 1018 30.06 848 25.04 -5 23.1 69 -9.9 14.2
21:55 1018 30.06 847 25.01 -4.8 23.3 68 -9.8 14.4
22:00 1018 30.06 847 25.01 -4.7 23.6 71 -9.1 15.5
22:05 1018 30.06 847 25.01 -4.9 23.2 72 -9.2 15.4
22:10 1018 30.06 847 25.01 -5 22.9 68 -10.1 13.9
22:15 1018 30.06 847 25.01 -4.9 23.1 68 -9.9 14.1
22:20 1018 30.06 848 25.04 -4.9 23.2 67 -10.1 13.8
22:25 1018 30.06 848 25.04 -4.8 23.4 70 -9.5 14.8
22:30 1018 30.06 848 25.04 -4.9 23.2 74 -8.8 16.1
22:35 1018 30.06 847 25.01 -5 22.9 73 -9.2 15.4
22:40 1018 30.06 847 25.01 -5.1 22.8 70 -9.8 14.3
22:45 1018 30.06 847 25.01 -5.1 22.8 67 -10.2 13.6
22:50 1018 30.06 848 25.04 -5.1 22.9 69 -9.9 14.1
22:55 1018 30.06 848 25.04 -5 23 70 -9.7 14.5
23:00 1018 30.06 848 25.04 -5 23 65 -10.6 12.9
23:05 1018 30.06 848 25.04 -4.9 23.3 67 -10.1 13.8
23:10 1018 30.06 848 25.04 -4.7 23.6 67 -10 14.1
23:15 1018 30.06 848 25.04 -4.5 24 66 -9.9 14.2
23:20 1018 30.06 848 25.04 -4.2 24.4 69 -9.1 15.7
23:25 1018 30.06 847 25.01 -4.5 23.9 67 -9.7 14.6
23:30 1018 30.06 848 25.04 -4.5 24 69 -9.4 15.1
23:35 1018 30.06 848 25.04 -4.4 24.1 67 -9.6 14.7
23:40 1018 30.06 848 25.04 -4.4 24.1 65 -10 14
23:45 1018 30.06 848 25.04 -4.2 24.5 66 -9.7 14.6
23:50 1018 30.06 848 25.04 -4.2 24.5 67 -9.5 14.9
23:55 1019 30.09 848 25.04 -4.4 24.1 67 -9.7 14.5
24:00 1018 30.06 848 25.04 -4.5 23.9 73 -8.6 16.5